sensor_id;sensor_type;location;lat;lon;timestamp;P1;durP1;ratioP1;P2;durP2;ratioP2
19585;SDS011;9939;49.246;9.106;2024-02-15T00:02:23;17.33;;;6.83;;
19585;SDS011;9939;49.246;9.106;2024-02-15T00:04:50;11.67;;;5.40;;
19585;SDS011;9939;49.246;9.106;2024-02-15T00:07:16;15.80;;;6.80;;
19585;SDS011;9939;49.246;9.106;2024-02-15T00:09:44;15.30;;;6.83;;
19585;SDS011;9939;49.246;9.106;2024-02-15T00:12:10;14.00;;;6.50;;
19585;SDS011;9939;49.246;9.106;2024-02-15T00:14:37;12.73;;;6.50;;
19585;SDS011;9939;49.246;9.106;2024-02-15T00:17:05;11.97;;;5.90;;
19585;SDS011;9939;49.246;9.106;2024-02-15T00:19:32;11.80;;;5.93;;
19585;SDS011;9939;49.246;9.106;2024-02-15T00:21:59;10.33;;;5.57;;
19585;SDS011;9939;49.246;9.106;2024-02-15T00:24:26;8.83;;;5.57;;
19585;SDS011;9939;49.246;9.106;2024-02-15T00:26:53;8.80;;;5.33;;
19585;SDS011;9939;49.246;9.106;2024-02-15T00:29:20;9.17;;;5.30;;
19585;SDS011;9939;49.246;9.106;2024-02-15T00:31:47;15.60;;;5.90;;
19585;SDS011;9939;49.246;9.106;2024-02-15T00:34:16;9.20;;;5.50;;
19585;SDS011;9939;49.246;9.106;2024-02-15T00:36:43;7.33;;;4.50;;
19585;SDS011;9939;49.246;9.106;2024-02-15T00:39:11;7.67;;;4.77;;
19585;SDS011;9939;49.246;9.106;2024-02-15T00:41:40;8.80;;;4.77;;
19585;SDS011;9939;49.246;9.106;2024-02-15T00:44:09;9.07;;;5.03;;
19585;SDS011;9939;49.246;9.106;2024-02-15T00:46:39;7.87;;;4.40;;
19585;SDS011;9939;49.246;9.106;2024-02-15T00:49:07;10.80;;;4.80;;
19585;SDS011;9939;49.246;9.106;2024-02-15T00:51:35;9.63;;;4.50;;
19585;SDS011;9939;49.246;9.106;2024-02-15T00:54:02;8.53;;;4.53;;
19585;SDS011;9939;49.246;9.106;2024-02-15T00:56:30;6.50;;;4.30;;
19585;SDS011;9939;49.246;9.106;2024-02-15T00:58:59;7.47;;;4.87;;
19585;SDS011;9939;49.246;9.106;2024-02-15T01:01:29;8.07;;;4.37;;
19585;SDS011;9939;49.246;9.106;2024-02-15T01:03:56;7.67;;;4.40;;
19585;SDS011;9939;49.246;9.106;2024-02-15T01:06:23;8.77;;;4.27;;
19585;SDS011;9939;49.246;9.106;2024-02-15T01:08:50;9.27;;;5.07;;
19585;SDS011;9939;49.246;9.106;2024-02-15T01:11:18;10.43;;;5.70;;
19585;SDS011;9939;49.246;9.106;2024-02-15T01:13:44;11.87;;;6.97;;
19585;SDS011;9939;49.246;9.106;2024-02-15T01:16:11;12.97;;;7.23;;
19585;SDS011;9939;49.246;9.106;2024-02-15T01:18:38;10.87;;;6.50;;
19585;SDS011;9939;49.246;9.106;2024-02-15T01:21:05;10.53;;;6.57;;
19585;SDS011;9939;49.246;9.106;2024-02-15T01:23:33;12.20;;;7.07;;
19585;SDS011;9939;49.246;9.106;2024-02-15T01:26:03;11.63;;;7.03;;
19585;SDS011;9939;49.246;9.106;2024-02-15T01:28:31;12.07;;;7.93;;
19585;SDS011;9939;49.246;9.106;2024-02-15T01:30:58;11.70;;;6.90;;
19585;SDS011;9939;49.246;9.106;2024-02-15T01:33:25;11.80;;;7.27;;
19585;SDS011;9939;49.246;9.106;2024-02-15T01:35:53;12.47;;;7.13;;
19585;SDS011;9939;49.246;9.106;2024-02-15T01:38:20;12.90;;;6.93;;
19585;SDS011;9939;49.246;9.106;2024-02-15T01:40:47;11.70;;;6.77;;
19585;SDS011;9939;49.246;9.106;2024-02-15T01:43:14;11.07;;;6.67;;
19585;SDS011;9939;49.246;9.106;2024-02-15T01:45:41;11.63;;;7.33;;
19585;SDS011;9939;49.246;9.106;2024-02-15T01:48:09;13.43;;;6.90;;
19585;SDS011;9939;49.246;9.106;2024-02-15T01:50:37;10.70;;;6.40;;
19585;SDS011;9939;49.246;9.106;2024-02-15T01:53:05;10.93;;;6.83;;
19585;SDS011;9939;49.246;9.106;2024-02-15T01:55:34;10.40;;;6.80;;
19585;SDS011;9939;49.246;9.106;2024-02-15T01:58:02;11.20;;;7.33;;
19585;SDS011;9939;49.246;9.106;2024-02-15T02:00:30;12.10;;;6.73;;
19585;SDS011;9939;49.246;9.106;2024-02-15T02:02:57;13.00;;;7.20;;
19585;SDS011;9939;49.246;9.106;2024-02-15T02:05:29;11.83;;;7.20;;
19585;SDS011;9939;49.246;9.106;2024-02-15T02:07:57;12.07;;;7.20;;
19585;SDS011;9939;49.246;9.106;2024-02-15T02:10:27;12.37;;;7.67;;
19585;SDS011;9939;49.246;9.106;2024-02-15T02:13:01;11.20;;;7.27;;
19585;SDS011;9939;49.246;9.106;2024-02-15T02:15:29;10.80;;;7.33;;
19585;SDS011;9939;49.246;9.106;2024-02-15T02:17:58;13.73;;;6.80;;
19585;SDS011;9939;49.246;9.106;2024-02-15T02:20:27;12.90;;;6.73;;
19585;SDS011;9939;49.246;9.106;2024-02-15T02:22:54;11.47;;;5.93;;
19585;SDS011;9939;49.246;9.106;2024-02-15T02:25:49;9.83;;;6.53;;
19585;SDS011;9939;49.246;9.106;2024-02-15T02:28:16;10.70;;;6.77;;
19585;SDS011;9939;49.246;9.106;2024-02-15T02:30:43;11.07;;;6.93;;
19585;SDS011;9939;49.246;9.106;2024-02-15T02:33:12;9.93;;;6.43;;
19585;SDS011;9939;49.246;9.106;2024-02-15T02:35:47;10.30;;;6.23;;
19585;SDS011;9939;49.246;9.106;2024-02-15T02:38:15;11.40;;;6.40;;
19585;SDS011;9939;49.246;9.106;2024-02-15T02:40:42;12.10;;;6.17;;
19585;SDS011;9939;49.246;9.106;2024-02-15T02:43:09;10.40;;;5.97;;
19585;SDS011;9939;49.246;9.106;2024-02-15T02:45:36;10.43;;;6.37;;
19585;SDS011;9939;49.246;9.106;2024-02-15T02:48:03;10.70;;;7.10;;
19585;SDS011;9939;49.246;9.106;2024-02-15T02:50:31;11.57;;;6.27;;
19585;SDS011;9939;49.246;9.106;2024-02-15T02:52:59;10.60;;;6.50;;
19585;SDS011;9939;49.246;9.106;2024-02-15T02:55:26;10.90;;;6.37;;
19585;SDS011;9939;49.246;9.106;2024-02-15T02:57:57;11.83;;;7.30;;
19585;SDS011;9939;49.246;9.106;2024-02-15T03:00:24;12.30;;;7.27;;
19585;SDS011;9939;49.246;9.106;2024-02-15T03:02:51;14.27;;;7.87;;
19585;SDS011;9939;49.246;9.106;2024-02-15T03:05:18;13.07;;;7.53;;
19585;SDS011;9939;49.246;9.106;2024-02-15T03:07:48;12.87;;;8.30;;
19585;SDS011;9939;49.246;9.106;2024-02-15T03:10:15;11.73;;;7.07;;
19585;SDS011;9939;49.246;9.106;2024-02-15T03:12:42;11.70;;;7.00;;
19585;SDS011;9939;49.246;9.106;2024-02-15T03:15:15;9.33;;;6.40;;
19585;SDS011;9939;49.246;9.106;2024-02-15T03:17:46;12.20;;;7.03;;
19585;SDS011;9939;49.246;9.106;2024-02-15T03:20:14;11.43;;;7.70;;
19585;SDS011;9939;49.246;9.106;2024-02-15T03:22:56;13.57;;;8.00;;
19585;SDS011;9939;49.246;9.106;2024-02-15T03:25:24;13.03;;;7.97;;
19585;SDS011;9939;49.246;9.106;2024-02-15T03:27:52;10.10;;;6.57;;
19585;SDS011;9939;49.246;9.106;2024-02-15T03:30:20;12.93;;;7.63;;
19585;SDS011;9939;49.246;9.106;2024-02-15T03:32:48;11.73;;;6.77;;
19585;SDS011;9939;49.246;9.106;2024-02-15T03:35:18;12.50;;;6.50;;
19585;SDS011;9939;49.246;9.106;2024-02-15T03:37:46;12.10;;;7.17;;
19585;SDS011;9939;49.246;9.106;2024-02-15T03:40:17;14.30;;;8.40;;
19585;SDS011;9939;49.246;9.106;2024-02-15T03:42:46;13.40;;;8.53;;
19585;SDS011;9939;49.246;9.106;2024-02-15T03:45:13;14.73;;;8.37;;
19585;SDS011;9939;49.246;9.106;2024-02-15T03:47:40;13.13;;;8.97;;
19585;SDS011;9939;49.246;9.106;2024-02-15T03:50:08;12.43;;;8.30;;
19585;SDS011;9939;49.246;9.106;2024-02-15T03:52:36;13.93;;;8.80;;
19585;SDS011;9939;49.246;9.106;2024-02-15T03:55:04;13.83;;;8.83;;
19585;SDS011;9939;49.246;9.106;2024-02-15T03:57:34;13.50;;;8.67;;
19585;SDS011;9939;49.246;9.106;2024-02-15T04:00:05;15.90;;;9.93;;
19585;SDS011;9939;49.246;9.106;2024-02-15T04:02:37;15.80;;;9.73;;
19585;SDS011;9939;49.246;9.106;2024-02-15T04:05:07;15.53;;;9.03;;
19585;SDS011;9939;49.246;9.106;2024-02-15T04:07:36;14.80;;;9.20;;
19585;SDS011;9939;49.246;9.106;2024-02-15T04:10:04;14.40;;;9.00;;
19585;SDS011;9939;49.246;9.106;2024-02-15T04:12:32;15.10;;;9.47;;
19585;SDS011;9939;49.246;9.106;2024-02-15T04:15:00;13.60;;;8.90;;
19585;SDS011;9939;49.246;9.106;2024-02-15T04:17:32;12.87;;;8.37;;
19585;SDS011;9939;49.246;9.106;2024-02-15T04:20:02;12.47;;;8.33;;
19585;SDS011;9939;49.246;9.106;2024-02-15T04:22:30;15.13;;;9.30;;
19585;SDS011;9939;49.246;9.106;2024-02-15T04:25:07;14.97;;;10.17;;
19585;SDS011;9939;49.246;9.106;2024-02-15T04:27:38;15.90;;;9.50;;
19585;SDS011;9939;49.246;9.106;2024-02-15T04:30:06;17.27;;;9.57;;
19585;SDS011;9939;49.246;9.106;2024-02-15T04:32:37;15.87;;;9.70;;
19585;SDS011;9939;49.246;9.106;2024-02-15T04:35:04;13.90;;;8.80;;
19585;SDS011;9939;49.246;9.106;2024-02-15T04:37:35;16.27;;;9.57;;
19585;SDS011;9939;49.246;9.106;2024-02-15T04:40:04;15.30;;;9.70;;
19585;SDS011;9939;49.246;9.106;2024-02-15T04:42:37;13.03;;;8.83;;
19585;SDS011;9939;49.246;9.106;2024-02-15T04:45:07;12.63;;;8.53;;
19585;SDS011;9939;49.246;9.106;2024-02-15T04:47:35;13.87;;;7.27;;
19585;SDS011;9939;49.246;9.106;2024-02-15T04:50:02;12.03;;;7.30;;
19585;SDS011;9939;49.246;9.106;2024-02-15T04:52:32;11.50;;;7.07;;
19585;SDS011;9939;49.246;9.106;2024-02-15T04:54:59;11.77;;;7.07;;
19585;SDS011;9939;49.246;9.106;2024-02-15T04:57:27;12.17;;;7.27;;
19585;SDS011;9939;49.246;9.106;2024-02-15T04:59:59;11.57;;;7.03;;
19585;SDS011;9939;49.246;9.106;2024-02-15T05:02:26;11.40;;;6.67;;
19585;SDS011;9939;49.246;9.106;2024-02-15T05:04:53;13.87;;;6.40;;
19585;SDS011;9939;49.246;9.106;2024-02-15T05:07:23;11.77;;;7.07;;
19585;SDS011;9939;49.246;9.106;2024-02-15T05:09:50;11.37;;;7.67;;
19585;SDS011;9939;49.246;9.106;2024-02-15T05:12:22;12.43;;;7.37;;
19585;SDS011;9939;49.246;9.106;2024-02-15T05:14:52;13.50;;;8.77;;
19585;SDS011;9939;49.246;9.106;2024-02-15T05:17:20;13.23;;;9.13;;
19585;SDS011;9939;49.246;9.106;2024-02-15T05:19:51;11.70;;;7.93;;
19585;SDS011;9939;49.246;9.106;2024-02-15T05:22:18;14.03;;;8.60;;
19585;SDS011;9939;49.246;9.106;2024-02-15T05:24:45;12.63;;;9.00;;
19585;SDS011;9939;49.246;9.106;2024-02-15T05:27:12;13.53;;;8.40;;
19585;SDS011;9939;49.246;9.106;2024-02-15T05:29:39;12.30;;;8.63;;
19585;SDS011;9939;49.246;9.106;2024-02-15T05:32:09;12.03;;;8.17;;
19585;SDS011;9939;49.246;9.106;2024-02-15T05:34:37;11.93;;;8.07;;
19585;SDS011;9939;49.246;9.106;2024-02-15T05:37:07;11.80;;;8.50;;
19585;SDS011;9939;49.246;9.106;2024-02-15T05:39:34;13.83;;;8.93;;
19585;SDS011;9939;49.246;9.106;2024-02-15T05:42:01;13.23;;;8.83;;
19585;SDS011;9939;49.246;9.106;2024-02-15T05:44:28;12.43;;;8.10;;
19585;SDS011;9939;49.246;9.106;2024-02-15T05:46:55;15.70;;;8.57;;
19585;SDS011;9939;49.246;9.106;2024-02-15T05:49:22;12.17;;;8.27;;
19585;SDS011;9939;49.246;9.106;2024-02-15T05:51:50;12.67;;;8.30;;
19585;SDS011;9939;49.246;9.106;2024-02-15T05:54:20;15.63;;;9.50;;
19585;SDS011;9939;49.246;9.106;2024-02-15T05:56:49;14.60;;;8.57;;
19585;SDS011;9939;49.246;9.106;2024-02-15T05:59:19;12.43;;;8.50;;
19585;SDS011;9939;49.246;9.106;2024-02-15T06:01:47;13.77;;;9.33;;
19585;SDS011;9939;49.246;9.106;2024-02-15T06:04:17;14.00;;;8.67;;
19585;SDS011;9939;49.246;9.106;2024-02-15T06:06:45;14.13;;;9.43;;
19585;SDS011;9939;49.246;9.106;2024-02-15T06:09:17;13.13;;;8.83;;
19585;SDS011;9939;49.246;9.106;2024-02-15T06:11:44;12.70;;;8.33;;
19585;SDS011;9939;49.246;9.106;2024-02-15T06:14:12;12.03;;;7.57;;
19585;SDS011;9939;49.246;9.106;2024-02-15T06:16:45;13.53;;;8.47;;
19585;SDS011;9939;49.246;9.106;2024-02-15T06:19:13;15.47;;;8.67;;
19585;SDS011;9939;49.246;9.106;2024-02-15T06:21:41;21.07;;;12.10;;
19585;SDS011;9939;49.246;9.106;2024-02-15T06:24:08;16.90;;;10.77;;
19585;SDS011;9939;49.246;9.106;2024-02-15T06:26:37;18.43;;;9.80;;
19585;SDS011;9939;49.246;9.106;2024-02-15T06:29:04;15.67;;;9.63;;
19585;SDS011;9939;49.246;9.106;2024-02-15T06:31:49;14.77;;;9.53;;
19585;SDS011;9939;49.246;9.106;2024-02-15T06:34:35;14.63;;;8.87;;
19585;SDS011;9939;49.246;9.106;2024-02-15T06:37:34;14.10;;;9.93;;
19585;SDS011;9939;49.246;9.106;2024-02-15T06:40:20;12.70;;;8.43;;
19585;SDS011;9939;49.246;9.106;2024-02-15T06:42:47;12.70;;;7.73;;
19585;SDS011;9939;49.246;9.106;2024-02-15T06:45:14;12.73;;;9.10;;
19585;SDS011;9939;49.246;9.106;2024-02-15T06:47:46;10.10;;;7.50;;
19585;SDS011;9939;49.246;9.106;2024-02-15T06:50:13;12.80;;;8.37;;
19585;SDS011;9939;49.246;9.106;2024-02-15T06:52:40;13.03;;;8.07;;
19585;SDS011;9939;49.246;9.106;2024-02-15T06:55:08;13.87;;;8.30;;
19585;SDS011;9939;49.246;9.106;2024-02-15T06:57:38;13.53;;;8.43;;
19585;SDS011;9939;49.246;9.106;2024-02-15T07:00:09;11.27;;;6.90;;
19585;SDS011;9939;49.246;9.106;2024-02-15T07:02:42;13.23;;;7.50;;
19585;SDS011;9939;49.246;9.106;2024-02-15T07:05:11;10.40;;;6.63;;
19585;SDS011;9939;49.246;9.106;2024-02-15T07:07:38;12.57;;;6.47;;
19585;SDS011;9939;49.246;9.106;2024-02-15T07:10:06;10.77;;;6.23;;
19585;SDS011;9939;49.246;9.106;2024-02-15T07:12:33;9.33;;;5.20;;
19585;SDS011;9939;49.246;9.106;2024-02-15T07:15:00;9.40;;;5.80;;
19585;SDS011;9939;49.246;9.106;2024-02-15T07:17:30;8.83;;;3.77;;
19585;SDS011;9939;49.246;9.106;2024-02-15T07:19:57;5.30;;;3.70;;
19585;SDS011;9939;49.246;9.106;2024-02-15T07:22:25;6.70;;;3.10;;
19585;SDS011;9939;49.246;9.106;2024-02-15T07:24:52;7.60;;;3.20;;
19585;SDS011;9939;49.246;9.106;2024-02-15T07:27:19;5.00;;;2.70;;
19585;SDS011;9939;49.246;9.106;2024-02-15T07:29:49;10.70;;;4.47;;
19585;SDS011;9939;49.246;9.106;2024-02-15T07:32:16;10.00;;;3.30;;
19585;SDS011;9939;49.246;9.106;2024-02-15T07:34:43;8.97;;;3.30;;
19585;SDS011;9939;49.246;9.106;2024-02-15T07:37:12;7.73;;;3.10;;
19585;SDS011;9939;49.246;9.106;2024-02-15T07:39:39;6.43;;;2.63;;
19585;SDS011;9939;49.246;9.106;2024-02-15T07:42:06;6.53;;;2.77;;
19585;SDS011;9939;49.246;9.106;2024-02-15T07:44:35;6.53;;;2.80;;
19585;SDS011;9939;49.246;9.106;2024-02-15T07:47:03;6.33;;;2.73;;
19585;SDS011;9939;49.246;9.106;2024-02-15T07:49:31;4.87;;;2.00;;
19585;SDS011;9939;49.246;9.106;2024-02-15T07:52:00;7.37;;;2.50;;
19585;SDS011;9939;49.246;9.106;2024-02-15T07:54:27;7.20;;;2.57;;
19585;SDS011;9939;49.246;9.106;2024-02-15T07:56:56;5.93;;;2.30;;
19585;SDS011;9939;49.246;9.106;2024-02-15T07:59:24;6.07;;;2.73;;
19585;SDS011;9939;49.246;9.106;2024-02-15T08:01:52;5.93;;;2.40;;
19585;SDS011;9939;49.246;9.106;2024-02-15T08:04:19;5.10;;;2.00;;
19585;SDS011;9939;49.246;9.106;2024-02-15T08:06:47;7.10;;;2.40;;
19585;SDS011;9939;49.246;9.106;2024-02-15T08:09:15;4.00;;;1.90;;
19585;SDS011;9939;49.246;9.106;2024-02-15T08:11:44;4.80;;;2.10;;
19585;SDS011;9939;49.246;9.106;2024-02-15T08:14:11;8.17;;;2.07;;
19585;SDS011;9939;49.246;9.106;2024-02-15T08:16:40;4.93;;;2.20;;
19585;SDS011;9939;49.246;9.106;2024-02-15T08:19:08;6.53;;;2.00;;
19585;SDS011;9939;49.246;9.106;2024-02-15T08:21:36;5.80;;;2.37;;
19585;SDS011;9939;49.246;9.106;2024-02-15T08:24:05;5.70;;;2.37;;
19585;SDS011;9939;49.246;9.106;2024-02-15T08:26:33;7.77;;;2.57;;
19585;SDS011;9939;49.246;9.106;2024-02-15T08:29:02;9.13;;;2.53;;
19585;SDS011;9939;49.246;9.106;2024-02-15T08:31:32;8.37;;;2.43;;
19585;SDS011;9939;49.246;9.106;2024-02-15T08:34:02;7.13;;;2.47;;
19585;SDS011;9939;49.246;9.106;2024-02-15T08:36:32;6.35;;;2.50;;
19585;SDS011;9939;49.246;9.106;2024-02-15T08:39:00;6.35;;;2.50;;
19585;SDS011;9939;49.246;9.106;2024-02-15T08:41:27;5.00;;;1.83;;
19585;SDS011;9939;49.246;9.106;2024-02-15T08:43:54;10.00;;;2.40;;
19585;SDS011;9939;49.246;9.106;2024-02-15T08:46:24;6.20;;;2.40;;
19585;SDS011;9939;49.246;9.106;2024-02-15T08:51:20;5.80;;;2.10;;
19585;SDS011;9939;49.246;9.106;2024-02-15T08:53:50;6.20;;;2.15;;
19585;SDS011;9939;49.246;9.106;2024-02-15T08:56:18;5.40;;;1.95;;
19585;SDS011;9939;49.246;9.106;2024-02-15T08:58:45;15.43;;;4.83;;
19585;SDS011;9939;49.246;9.106;2024-02-15T09:01:13;17.33;;;6.70;;
19585;SDS011;9939;49.246;9.106;2024-02-15T09:03:40;8.15;;;3.15;;
19585;SDS011;9939;49.246;9.106;2024-02-15T09:06:07;9.80;;;3.40;;
19585;SDS011;9939;49.246;9.106;2024-02-15T09:28:19;5.30;;;1.90;;
19585;SDS011;9939;49.246;9.106;2024-02-15T09:30:49;6.60;;;2.33;;
19585;SDS011;9939;49.246;9.106;2024-02-15T09:33:22;6.03;;;2.20;;
19585;SDS011;9939;49.246;9.106;2024-02-15T09:35:49;4.47;;;1.73;;
19585;SDS011;9939;49.246;9.106;2024-02-15T09:38:16;5.73;;;1.87;;
19585;SDS011;9939;49.246;9.106;2024-02-15T09:40:45;5.77;;;1.70;;
19585;SDS011;9939;49.246;9.106;2024-02-15T09:43:15;6.03;;;2.30;;
19585;SDS011;9939;49.246;9.106;2024-02-15T09:48:10;5.33;;;1.97;;
19585;SDS011;9939;49.246;9.106;2024-02-15T09:50:41;5.27;;;2.40;;
19585;SDS011;9939;49.246;9.106;2024-02-15T09:53:13;6.33;;;1.77;;
19585;SDS011;9939;49.246;9.106;2024-02-15T09:55:41;6.43;;;2.00;;
19585;SDS011;9939;49.246;9.106;2024-02-15T09:58:09;8.90;;;2.60;;
19585;SDS011;9939;49.246;9.106;2024-02-15T10:00:39;9.83;;;2.33;;
19585;SDS011;9939;49.246;9.106;2024-02-15T10:03:06;6.50;;;1.90;;
19585;SDS011;9939;49.246;9.106;2024-02-15T10:05:34;8.13;;;2.10;;
19585;SDS011;9939;49.246;9.106;2024-02-15T10:08:02;4.97;;;1.70;;
19585;SDS011;9939;49.246;9.106;2024-02-15T10:10:30;4.47;;;1.80;;
19585;SDS011;9939;49.246;9.106;2024-02-15T10:12:59;8.30;;;1.80;;
19585;SDS011;9939;49.246;9.106;2024-02-15T10:15:37;6.60;;;1.80;;
19585;SDS011;9939;49.246;9.106;2024-02-15T10:18:07;3.90;;;1.80;;
19585;SDS011;9939;49.246;9.106;2024-02-15T10:20:37;6.70;;;1.97;;
19585;SDS011;9939;49.246;9.106;2024-02-15T10:23:09;3.70;;;1.83;;
19585;SDS011;9939;49.246;9.106;2024-02-15T10:25:38;3.03;;;1.60;;
19585;SDS011;9939;49.246;9.106;2024-02-15T10:28:06;5.57;;;1.80;;
19585;SDS011;9939;49.246;9.106;2024-02-15T10:30:38;3.67;;;1.70;;
19585;SDS011;9939;49.246;9.106;2024-02-15T10:33:10;6.23;;;2.03;;
19585;SDS011;9939;49.246;9.106;2024-02-15T10:36:07;4.13;;;1.67;;
19585;SDS011;9939;49.246;9.106;2024-02-15T10:38:36;5.87;;;1.60;;
19585;SDS011;9939;49.246;9.106;2024-02-15T10:41:04;6.53;;;2.00;;
19585;SDS011;9939;49.246;9.106;2024-02-15T10:43:35;7.63;;;2.10;;
19585;SDS011;9939;49.246;9.106;2024-02-15T10:46:07;9.40;;;2.37;;
19585;SDS011;9939;49.246;9.106;2024-02-15T10:48:37;4.23;;;1.83;;
19585;SDS011;9939;49.246;9.106;2024-02-15T10:51:06;5.90;;;2.00;;
19585;SDS011;9939;49.246;9.106;2024-02-15T10:53:39;5.20;;;2.17;;
19585;SDS011;9939;49.246;9.106;2024-02-15T10:56:18;6.97;;;2.10;;
19585;SDS011;9939;49.246;9.106;2024-02-15T10:58:56;5.73;;;2.10;;
19585;SDS011;9939;49.246;9.106;2024-02-15T11:01:29;4.60;;;1.97;;
19585;SDS011;9939;49.246;9.106;2024-02-15T11:04:05;7.50;;;1.90;;
19585;SDS011;9939;49.246;9.106;2024-02-15T11:06:38;7.20;;;1.80;;
19585;SDS011;9939;49.246;9.106;2024-02-15T11:09:09;6.43;;;1.80;;
19585;SDS011;9939;49.246;9.106;2024-02-15T11:11:38;5.33;;;1.40;;
19585;SDS011;9939;49.246;9.106;2024-02-15T11:14:22;3.97;;;1.43;;
19585;SDS011;9939;49.246;9.106;2024-02-15T11:16:51;5.30;;;1.80;;
19585;SDS011;9939;49.246;9.106;2024-02-15T11:19:52;4.17;;;1.50;;
19585;SDS011;9939;49.246;9.106;2024-02-15T11:22:15;7.80;;;1.70;;
19585;SDS011;9939;49.246;9.106;2024-02-15T11:24:46;5.37;;;1.63;;
19585;SDS011;9939;49.246;9.106;2024-02-15T11:27:28;4.07;;;1.63;;
19585;SDS011;9939;49.246;9.106;2024-02-15T11:29:57;4.37;;;1.70;;
19585;SDS011;9939;49.246;9.106;2024-02-15T11:35:17;4.73;;;1.57;;
19585;SDS011;9939;49.246;9.106;2024-02-15T11:40:18;5.43;;;1.57;;
19585;SDS011;9939;49.246;9.106;2024-02-15T11:42:56;6.53;;;1.70;;
19585;SDS011;9939;49.246;9.106;2024-02-15T11:45:28;4.30;;;1.70;;
19585;SDS011;9939;49.246;9.106;2024-02-15T11:48:01;5.87;;;1.60;;
19585;SDS011;9939;49.246;9.106;2024-02-15T11:50:30;4.70;;;1.23;;
19585;SDS011;9939;49.246;9.106;2024-02-15T11:53:04;5.90;;;1.50;;
19585;SDS011;9939;49.246;9.106;2024-02-15T11:55:36;3.93;;;1.40;;
19585;SDS011;9939;49.246;9.106;2024-02-15T11:58:08;3.73;;;1.20;;
19585;SDS011;9939;49.246;9.106;2024-02-15T12:00:38;4.30;;;1.10;;
19585;SDS011;9939;49.246;9.106;2024-02-15T12:03:24;3.50;;;1.00;;
19585;SDS011;9939;49.246;9.106;2024-02-15T12:06:29;3.60;;;1.20;;
19585;SDS011;9939;49.246;9.106;2024-02-15T12:09:19;5.20;;;1.30;;
19585;SDS011;9939;49.246;9.106;2024-02-15T12:12:05;3.50;;;1.37;;
19585;SDS011;9939;49.246;9.106;2024-02-15T12:15:01;4.20;;;1.07;;
19585;SDS011;9939;49.246;9.106;2024-02-15T12:17:47;1.83;;;0.90;;
19585;SDS011;9939;49.246;9.106;2024-02-15T12:20:33;6.20;;;1.30;;
19585;SDS011;9939;49.246;9.106;2024-02-15T12:23:01;3.93;;;1.03;;
19585;SDS011;9939;49.246;9.106;2024-02-15T12:25:28;6.63;;;1.40;;
19585;SDS011;9939;49.246;9.106;2024-02-15T12:28:00;6.43;;;1.47;;
19585;SDS011;9939;49.246;9.106;2024-02-15T12:30:34;4.97;;;1.20;;
19585;SDS011;9939;49.246;9.106;2024-02-15T12:33:10;3.63;;;1.00;;
19585;SDS011;9939;49.246;9.106;2024-02-15T12:35:39;7.00;;;1.33;;
19585;SDS011;9939;49.246;9.106;2024-02-15T12:38:08;3.90;;;1.17;;
19585;SDS011;9939;49.246;9.106;2024-02-15T12:40:39;14.03;;;2.30;;
19585;SDS011;9939;49.246;9.106;2024-02-15T12:43:11;6.73;;;1.40;;
19585;SDS011;9939;49.246;9.106;2024-02-15T12:45:39;4.03;;;1.30;;
19585;SDS011;9939;49.246;9.106;2024-02-15T12:48:08;2.70;;;1.10;;
19585;SDS011;9939;49.246;9.106;2024-02-15T12:50:35;3.00;;;1.17;;
19585;SDS011;9939;49.246;9.106;2024-02-15T12:53:03;5.63;;;1.23;;
19585;SDS011;9939;49.246;9.106;2024-02-15T12:55:33;6.60;;;1.40;;
19585;SDS011;9939;49.246;9.106;2024-02-15T12:58:05;6.20;;;1.10;;
19585;SDS011;9939;49.246;9.106;2024-02-15T13:00:36;5.37;;;1.43;;
19585;SDS011;9939;49.246;9.106;2024-02-15T13:03:07;4.00;;;1.13;;
19585;SDS011;9939;49.246;9.106;2024-02-15T13:05:36;11.20;;;1.93;;
19585;SDS011;9939;49.246;9.106;2024-02-15T13:08:04;4.73;;;1.23;;
19585;SDS011;9939;49.246;9.106;2024-02-15T13:10:37;3.53;;;1.17;;
19585;SDS011;9939;49.246;9.106;2024-02-15T13:13:06;3.10;;;1.00;;
19585;SDS011;9939;49.246;9.106;2024-02-15T13:15:33;4.57;;;0.93;;
19585;SDS011;9939;49.246;9.106;2024-02-15T13:18:01;3.47;;;1.07;;
19585;SDS011;9939;49.246;9.106;2024-02-15T13:20:32;4.53;;;1.10;;
19585;SDS011;9939;49.246;9.106;2024-02-15T13:25:51;4.37;;;1.20;;
19585;SDS011;9939;49.246;9.106;2024-02-15T13:28:19;3.30;;;1.10;;
19585;SDS011;9939;49.246;9.106;2024-02-15T13:30:46;4.10;;;1.13;;
19585;SDS011;9939;49.246;9.106;2024-02-15T13:33:16;5.07;;;1.13;;
19585;SDS011;9939;49.246;9.106;2024-02-15T13:35:44;4.33;;;1.33;;
19585;SDS011;9939;49.246;9.106;2024-02-15T13:38:11;4.80;;;1.30;;
19585;SDS011;9939;49.246;9.106;2024-02-15T13:40:49;5.33;;;1.20;;
19585;SDS011;9939;49.246;9.106;2024-02-15T13:43:18;5.90;;;1.27;;
19585;SDS011;9939;49.246;9.106;2024-02-15T13:45:45;3.13;;;1.10;;
19585;SDS011;9939;49.246;9.106;2024-02-15T13:48:12;4.57;;;1.33;;
19585;SDS011;9939;49.246;9.106;2024-02-15T13:50:41;5.33;;;1.40;;
19585;SDS011;9939;49.246;9.106;2024-02-15T13:53:10;4.73;;;1.23;;
19585;SDS011;9939;49.246;9.106;2024-02-15T13:55:40;6.87;;;1.40;;
19585;SDS011;9939;49.246;9.106;2024-02-15T13:58:07;4.53;;;1.20;;
19585;SDS011;9939;49.246;9.106;2024-02-15T14:00:39;3.07;;;1.10;;
19585;SDS011;9939;49.246;9.106;2024-02-15T14:03:09;6.50;;;1.00;;
19585;SDS011;9939;49.246;9.106;2024-02-15T14:05:37;4.20;;;1.20;;
19585;SDS011;9939;49.246;9.106;2024-02-15T14:08:07;6.73;;;1.40;;
19585;SDS011;9939;49.246;9.106;2024-02-15T14:10:35;3.50;;;1.37;;
19585;SDS011;9939;49.246;9.106;2024-02-15T14:13:04;4.63;;;1.17;;
19585;SDS011;9939;49.246;9.106;2024-02-15T14:15:33;4.33;;;1.10;;
19585;SDS011;9939;49.246;9.106;2024-02-15T14:20:40;5.83;;;1.93;;
19585;SDS011;9939;49.246;9.106;2024-02-15T14:23:09;4.23;;;1.03;;
19585;SDS011;9939;49.246;9.106;2024-02-15T14:25:41;5.80;;;1.30;;
19585;SDS011;9939;49.246;9.106;2024-02-15T14:28:08;5.90;;;0.90;;
19585;SDS011;9939;49.246;9.106;2024-02-15T14:30:36;4.23;;;1.30;;
19585;SDS011;9939;49.246;9.106;2024-02-15T14:33:22;4.67;;;1.37;;
19585;SDS011;9939;49.246;9.106;2024-02-15T14:35:58;5.03;;;1.33;;
19585;SDS011;9939;49.246;9.106;2024-02-15T14:38:26;6.10;;;1.50;;
19585;SDS011;9939;49.246;9.106;2024-02-15T14:40:53;4.53;;;1.23;;
19585;SDS011;9939;49.246;9.106;2024-02-15T14:43:23;6.83;;;1.47;;
19585;SDS011;9939;49.246;9.106;2024-02-15T14:45:52;3.33;;;1.10;;
19585;SDS011;9939;49.246;9.106;2024-02-15T14:48:20;4.03;;;1.10;;
19585;SDS011;9939;49.246;9.106;2024-02-15T14:50:48;4.53;;;1.17;;
19585;SDS011;9939;49.246;9.106;2024-02-15T14:53:18;5.23;;;1.50;;
19585;SDS011;9939;49.246;9.106;2024-02-15T14:55:45;5.10;;;1.27;;
19585;SDS011;9939;49.246;9.106;2024-02-15T14:58:13;3.37;;;1.10;;
19585;SDS011;9939;49.246;9.106;2024-02-15T15:00:43;3.47;;;1.47;;
19585;SDS011;9939;49.246;9.106;2024-02-15T15:03:15;5.10;;;1.10;;
19585;SDS011;9939;49.246;9.106;2024-02-15T15:05:43;6.00;;;1.37;;
19585;SDS011;9939;49.246;9.106;2024-02-15T15:08:30;3.43;;;1.10;;
19585;SDS011;9939;49.246;9.106;2024-02-15T15:11:17;4.97;;;1.17;;
19585;SDS011;9939;49.246;9.106;2024-02-15T15:14:03;5.03;;;1.47;;
19585;SDS011;9939;49.246;9.106;2024-02-15T15:16:31;4.30;;;1.57;;
19585;SDS011;9939;49.246;9.106;2024-02-15T15:19:00;3.90;;;1.23;;
19585;SDS011;9939;49.246;9.106;2024-02-15T15:21:28;4.87;;;1.43;;
19585;SDS011;9939;49.246;9.106;2024-02-15T15:23:55;6.47;;;1.33;;
19585;SDS011;9939;49.246;9.106;2024-02-15T15:26:23;4.73;;;1.10;;
19585;SDS011;9939;49.246;9.106;2024-02-15T15:28:50;2.27;;;1.27;;
19585;SDS011;9939;49.246;9.106;2024-02-15T15:31:17;4.63;;;1.20;;
19585;SDS011;9939;49.246;9.106;2024-02-15T15:33:47;4.47;;;1.30;;
19585;SDS011;9939;49.246;9.106;2024-02-15T15:36:19;5.07;;;1.20;;
19585;SDS011;9939;49.246;9.106;2024-02-15T15:38:48;4.53;;;1.30;;
19585;SDS011;9939;49.246;9.106;2024-02-15T15:41:16;4.03;;;1.07;;
19585;SDS011;9939;49.246;9.106;2024-02-15T15:43:43;6.90;;;1.40;;
19585;SDS011;9939;49.246;9.106;2024-02-15T15:46:14;4.67;;;1.30;;
19585;SDS011;9939;49.246;9.106;2024-02-15T15:48:42;4.57;;;1.57;;